80D weather

Clare County Airport
Harrison, Michigan, United States

Public forecast

Using degrees Fahrenheit for public forecast. Weather courtesy of forecast.io.

METAR (pilot weather report)

Closest report is Roscommon County - Blodgett Memorial Airport, 19.4 nm (35.9 km) NNE. Retrieved 2019/06/17 18:53 UTC (1 hour ago):

KHTL 171853Z AUTO 28007KT 10SM CLR 21/09 A3003 RMK AO2 SLP168 T02110089

TAF (pilot weather forecast)

Closest forecast is MBS International Airport, 44.5 nm (82.5 km) SE. Retrieved 2019/06/17 18:42 UTC (1 hour ago):

TAF KMBS 171741Z 1718/1818 04005KT P6SM OVC025 FM180200 VRB03KT P6SM BKN040 OVC250 FM180800 03005KT P6SM SCT025 OVC040 FM181400 07005KT P6SM OVC040